Terminal Aerodrome Forecast
Issued by NWS

Home | Current Version | Previous Version | Graphics & Text | Print | Product List | Glossary On
Versions: 1 2 3 4 5 6 7 8 9 10 11 12 13 14 15 16 17 18 19 20 21 22 23 24 25 26 27 28 29 30 31 32 33 34 35 36
000
FTUS45 KGGW 040528
TAFGDV
TAF
KGDV 040528Z 0406/0506 29007KT P6SM SCT250
     FM041200 VRB03KT P6SM SCT250
     FM041800 20007KT P6SM BKN130
     FM042200 19005KT P6SM VCSH SCT050 BKN090
     FM050200 VRB03KT 3SM -SN SCT015 OVC030
      AMD LTD TO CLD VIS AND WIND=

USA.gov is the U.S. government's official web portal to all federal, state and local government web resources and services.